BKB7 CYLW-CYKA
Flight info
| Callsign | BKB7 |
|---|---|
| Flight time | N/A |
| Altitude | 8000 |
| Route | CZAM DCT VOMAD |
| Aircraft | AT46/M-SDFGIRY/S |
Departure
| Time | N/A |
|---|---|
| Airport | Kelowna International Airport (CYLW) |
Arrival
| Time | 2026-04-26 14:14 |
|---|---|
| Airport | Kamloops John Moose Fulton Field Regional Airport (CYKA) |
| Time | Latitude | Longitude | Altitude | Speed | Heading |
|---|---|---|---|---|---|
| 2026-04-26 13:51 | 50.68494 | -119.23348 | 1790 ft | 0 kts | 33° |
| 2026-04-26 13:53 | 50.68500 | -119.23341 | 1789 ft | 2 kts | 39° |
| 2026-04-26 13:53 | 50.68512 | -119.23321 | 1788 ft | 3 kts | 43° |
| 2026-04-26 13:53 | 50.68538 | -119.23279 | 1788 ft | 7 kts | 47° |
| 2026-04-26 13:53 | 50.68568 | -119.23223 | 1794 ft | 2 kts | 51° |
| 2026-04-26 13:54 | 50.68583 | -119.23194 | 1787 ft | 6 kts | 50° |
| 2026-04-26 13:54 | 50.68616 | -119.23129 | 1792 ft | 9 kts | 58° |
| 2026-04-26 13:54 | 50.68595 | -119.23075 | 1793 ft | 7 kts | 156° |
| 2026-04-26 13:55 | 50.68482 | -119.23006 | 1792 ft | 12 kts | 157° |
| 2026-04-26 13:55 | 50.68443 | -119.22981 | 1791 ft | 13 kts | 157° |
| 2026-04-26 13:55 | 50.68254 | -119.22864 | 1794 ft | 13 kts | 158° |
| 2026-04-26 13:56 | 50.68172 | -119.22813 | 1797 ft | 12 kts | 158° |
| 2026-04-26 13:56 | 50.68099 | -119.22770 | 1801 ft | 11 kts | 159° |
| 2026-04-26 13:56 | 50.68026 | -119.22725 | 1797 ft | 12 kts | 159° |
| 2026-04-26 13:56 | 50.67948 | -119.22678 | 1794 ft | 12 kts | 159° |
| 2026-04-26 13:57 | 50.67876 | -119.22635 | 1796 ft | 11 kts | 159° |
| 2026-04-26 13:57 | 50.67799 | -119.22587 | 1792 ft | 13 kts | 158° |
| 2026-04-26 13:57 | 50.67711 | -119.22547 | 1792 ft | 12 kts | 142° |
| 2026-04-26 13:57 | 50.67702 | -119.22529 | 1791 ft | 0 kts | 113° |
| 2026-04-26 13:58 | 50.67702 | -119.22525 | 1791 ft | 1 kts | 77° |
| 2026-04-26 13:58 | 50.67704 | -119.22524 | 1792 ft | 0 kts | 51° |
| 2026-04-26 13:58 | 50.67705 | -119.22523 | 1791 ft | 0 kts | 29° |
| 2026-04-26 13:58 | 50.67708 | -119.22524 | 1791 ft | 1 kts | 342° |
| 2026-04-26 13:59 | 50.67737 | -119.22548 | 1790 ft | 4 kts | 337° |
| 2026-04-26 13:59 | 50.67742 | -119.22552 | 1789 ft | 0 kts | 338° |
| 2026-04-26 13:59 | 50.67914 | -119.22657 | 1799 ft | 60 kts | 339° |
| 2026-04-26 14:00 | 50.70159 | -119.24364 | 2889 ft | 135 kts | 311° |
| 2026-04-26 14:00 | 50.70483 | -119.25765 | 3407 ft | 144 kts | 271° |
| 2026-04-26 14:00 | 50.70367 | -119.26819 | 3841 ft | 152 kts | 251° |
| 2026-04-26 14:01 | 50.69608 | -119.28832 | 4548 ft | 168 kts | 238° |
| 2026-04-26 14:01 | 50.68945 | -119.30418 | 5072 ft | 179 kts | 240° |
| 2026-04-26 14:01 | 50.68306 | -119.32161 | 5590 ft | 188 kts | 243° |
| 2026-04-26 14:01 | 50.67694 | -119.33994 | 6112 ft | 195 kts | 248° |
| 2026-04-26 14:02 | 50.67172 | -119.35986 | 6624 ft | 197 kts | 253° |
| 2026-04-26 14:02 | 50.66775 | -119.38034 | 7123 ft | 195 kts | 259° |
| 2026-04-26 14:02 | 50.66490 | -119.40106 | 7636 ft | 192 kts | 263° |
| 2026-04-26 14:02 | 50.66278 | -119.42243 | 7879 ft | 206 kts | 265° |
| 2026-04-26 14:03 | 50.66082 | -119.44579 | 7952 ft | 224 kts | 265° |
| 2026-04-26 14:03 | 50.65873 | -119.47086 | 7990 ft | 238 kts | 265° |
| 2026-04-26 14:03 | 50.65623 | -119.49730 | 7995 ft | 249 kts | 264° |
| 2026-04-26 14:03 | 50.65350 | -119.52465 | 8009 ft | 257 kts | 264° |
| 2026-04-26 14:04 | 50.65065 | -119.55283 | 8018 ft | 264 kts | 263° |
| 2026-04-26 14:04 | 50.64772 | -119.58171 | 8015 ft | 270 kts | 263° |
| 2026-04-26 14:04 | 50.64477 | -119.61090 | 8003 ft | 268 kts | 263° |
| 2026-04-26 14:04 | 50.64185 | -119.63972 | 8000 ft | 264 kts | 263° |
| 2026-04-26 14:05 | 50.63892 | -119.66804 | 7996 ft | 260 kts | 263° |
| 2026-04-26 14:05 | 50.63606 | -119.69601 | 7993 ft | 257 kts | 263° |
| 2026-04-26 14:05 | 50.63324 | -119.72371 | 7998 ft | 255 kts | 263° |
| 2026-04-26 14:05 | 50.63041 | -119.75120 | 8013 ft | 254 kts | 263° |
| 2026-04-26 14:06 | 50.62758 | -119.77867 | 8014 ft | 254 kts | 263° |
| 2026-04-26 14:06 | 50.62477 | -119.80611 | 8010 ft | 254 kts | 263° |
| 2026-04-26 14:06 | 50.62192 | -119.83358 | 8018 ft | 254 kts | 263° |
| 2026-04-26 14:06 | 50.61910 | -119.86095 | 8016 ft | 253 kts | 263° |
| 2026-04-26 14:07 | 50.61692 | -119.88826 | 8020 ft | 249 kts | 273° |
| 2026-04-26 14:07 | 50.61922 | -119.91510 | 7996 ft | 249 kts | 283° |
| 2026-04-26 14:07 | 50.62309 | -119.94212 | 7750 ft | 256 kts | 285° |
| 2026-04-26 14:07 | 50.62708 | -119.96911 | 7481 ft | 250 kts | 284° |
| 2026-04-26 14:08 | 50.63041 | -119.99477 | 7218 ft | 226 kts | 283° |
| 2026-04-26 14:08 | 50.63305 | -120.01796 | 6949 ft | 205 kts | 282° |
| 2026-04-26 14:08 | 50.63547 | -120.03930 | 6693 ft | 192 kts | 282° |
| 2026-04-26 14:08 | 50.63777 | -120.05945 | 6441 ft | 182 kts | 283° |
| 2026-04-26 14:09 | 50.64002 | -120.07873 | 6179 ft | 176 kts | 283° |
| 2026-04-26 14:09 | 50.64233 | -120.09797 | 5916 ft | 182 kts | 284° |
| 2026-04-26 14:09 | 50.64521 | -120.11777 | 5634 ft | 188 kts | 285° |
| 2026-04-26 14:09 | 50.64846 | -120.13796 | 5331 ft | 192 kts | 287° |
| 2026-04-26 14:10 | 50.65193 | -120.15804 | 4965 ft | 187 kts | 287° |
| 2026-04-26 14:10 | 50.65534 | -120.17727 | 4626 ft | 181 kts | 287° |
| 2026-04-26 14:10 | 50.65877 | -120.19597 | 4331 ft | 172 kts | 287° |
| 2026-04-26 14:10 | 50.66204 | -120.21362 | 4126 ft | 167 kts | 288° |
| 2026-04-26 14:11 | 50.66851 | -120.24863 | 3577 ft | 167 kts | 286° |
| 2026-04-26 14:11 | 50.67169 | -120.26622 | 3307 ft | 167 kts | 286° |
| 2026-04-26 14:11 | 50.67479 | -120.28370 | 3056 ft | 166 kts | 285° |
| 2026-04-26 14:12 | 50.67785 | -120.30116 | 2836 ft | 165 kts | 285° |
| 2026-04-26 14:12 | 50.68087 | -120.31840 | 2727 ft | 162 kts | 286° |
| 2026-04-26 14:12 | 50.68383 | -120.33519 | 2501 ft | 155 kts | 286° |
| 2026-04-26 14:12 | 50.68657 | -120.35068 | 2231 ft | 140 kts | 286° |
| 2026-04-26 14:13 | 50.69181 | -120.37899 | 1880 ft | 132 kts | 288° |
| 2026-04-26 14:13 | 50.69436 | -120.39208 | 1753 ft | 122 kts | 287° |
| 2026-04-26 14:13 | 50.69646 | -120.40482 | 1553 ft | 117 kts | 284° |
| 2026-04-26 14:14 | 50.69823 | -120.41695 | 1365 ft | 113 kts | 284° |
| 2026-04-26 14:14 | 50.70007 | -120.42899 | 1193 ft | 110 kts | 285° |
| 2026-04-26 14:14 | 50.70179 | -120.44010 | 1132 ft | 94 kts | 284° |
| 2026-04-26 14:14 | 50.70292 | -120.44770 | 1130 ft | 35 kts | 283° |
| 2026-04-26 14:15 | 50.70340 | -120.45095 | 1137 ft | 26 kts | 282° |
| 2026-04-26 14:15 | 50.70373 | -120.45327 | 1133 ft | 19 kts | 284° |
| 2026-04-26 14:15 | 50.70440 | -120.45382 | 1137 ft | 11 kts | 64° |
| 2026-04-26 14:15 | 50.70472 | -120.45290 | 1135 ft | 9 kts | 58° |
| 2026-04-26 14:16 | 50.70512 | -120.45187 | 1134 ft | 15 kts | 60° |
| 2026-04-26 14:16 | 50.70512 | -120.45050 | 1131 ft | 13 kts | 102° |
| 2026-04-26 14:16 | 50.70495 | -120.44938 | 1135 ft | 9 kts | 104° |
| 2026-04-26 14:16 | 50.70483 | -120.44864 | 1131 ft | 7 kts | 103° |
| 2026-04-26 14:17 | 50.70464 | -120.44745 | 1135 ft | 15 kts | 106° |
| 2026-04-26 14:17 | 50.70435 | -120.44558 | 1133 ft | 17 kts | 101° |
| 2026-04-26 14:17 | 50.70418 | -120.44415 | 1132 ft | 11 kts | 101° |
| 2026-04-26 14:17 | 50.70385 | -120.44340 | 1131 ft | 7 kts | 147° |
| 2026-04-26 14:18 | 50.70359 | -120.44289 | 1133 ft | 5 kts | 84° |
| 2026-04-26 14:18 | 50.70382 | -120.44219 | 1131 ft | 9 kts | 60° |
| 2026-04-26 14:18 | 50.70413 | -120.44130 | 1133 ft | 9 kts | 60° |
| 2026-04-26 14:18 | 50.70440 | -120.44075 | 1134 ft | 4 kts | 20° |
| 2026-04-26 14:19 | 50.70467 | -120.44086 | 1132 ft | 4 kts | 330° |
| 2026-04-26 14:19 | 50.70486 | -120.44102 | 1134 ft | 1 kts | 332° |
| 2026-04-26 14:19 | 50.70484 | -120.44101 | 1134 ft | 0 kts | 333° |
| 2026-04-26 14:20 | 50.70485 | -120.44102 | 1134 ft | 0 kts | 333° |